Time;durP1;ratioP1;P1;durP2;ratioP2;P2;SDS_P1;SDS_P2;PMS_P1;PMS_P2;Temp;Humidity;BMP_temperature;BMP_pressure;BME280_temperature;BME280_humidity;BME280_pressure;Samples;Min_cycle;Max_cycle;Signal;HPM_P1;HPM_P2
2023/05/19 00:01:55;;;;;;;9.68;4.47;;;9.50;1.00;;;;;;5049353;28;20116;-61
2023/05/19 00:04:21;;;;;;;11.02;4.45;;;9.40;1.00;;;;;;5048470;28;20076;-61
2023/05/19 00:06:50;;;;;;;9.48;4.20;;;9.50;1.00;;;;;;5046547;28;20416;-61
2023/05/19 00:09:16;;;;;;;10.15;3.88;;;9.40;1.00;;;;;;5045355;28;20036;-61
2023/05/19 00:11:41;;;;;;;8.30;4.05;;;9.40;1.00;;;;;;5052853;28;20078;-61
2023/05/19 00:14:10;;;;;;;8.77;3.85;;;9.30;1.00;;;;;;5047790;28;20048;-60
2023/05/19 00:16:37;;;;;;;8.23;4.10;;;9.30;1.00;;;;;;5051434;28;20373;-61
2023/05/19 00:19:04;;;;;;;13.10;4.60;;;9.40;1.00;;;;;;5048138;28;20039;-62
2023/05/19 00:21:30;;;;;;;12.15;4.57;;;9.30;1.00;;;;;;5044173;28;20033;-61
2023/05/19 00:23:56;;;;;;;10.43;4.15;;;9.20;1.00;;;;;;5052022;28;20447;-61
2023/05/19 00:26:22;;;;;;;8.93;4.20;;;9.30;1.00;;;;;;5044642;28;20032;-61
2023/05/19 00:28:49;;;;;;;7.97;4.43;;;9.20;1.00;;;;;;5051102;28;20040;-61
2023/05/19 00:31:15;;;;;;;9.13;4.32;;;9.20;1.00;;;;;;5044664;28;20166;-61
2023/05/19 00:33:40;;;;;;;11.45;4.65;;;9.10;1.00;;;;;;5047093;28;20050;-61
2023/05/19 00:36:06;;;;;;;11.85;4.60;;;9.10;1.00;;;;;;5048162;28;20037;-60
2023/05/19 00:38:34;;;;;;;10.57;4.35;;;9.10;1.00;;;;;;5047668;28;20036;-61
2023/05/19 00:41:00;;;;;;;6.63;4.57;;;9.10;1.00;;;;;;5047823;28;20050;-61
2023/05/19 00:43:26;;;;;;;11.18;4.88;;;9.10;1.00;;;;;;5049652;28;20086;-61
2023/05/19 00:45:52;;;;;;;10.68;5.10;;;9.00;1.00;;;;;;5047109;28;20041;-61
2023/05/19 00:48:17;;;;;;;11.48;4.78;;;9.00;1.00;;;;;;5044549;28;20397;-61
2023/05/19 00:50:44;;;;;;;9.23;4.60;;;9.00;1.00;;;;;;5049373;28;20071;-61
2023/05/19 00:53:10;;;;;;;11.35;4.50;;;9.00;1.00;;;;;;5045410;28;20127;-61
2023/05/19 00:55:39;;;;;;;9.10;4.65;;;8.80;1.00;;;;;;5049537;28;20595;-61
2023/05/19 00:58:05;;;;;;;8.93;4.63;;;8.90;1.00;;;;;;5047155;28;20040;-61
2023/05/19 01:00:31;;;;;;;8.25;4.38;;;8.80;1.00;;;;;;5050424;28;20038;-61
2023/05/19 01:02:57;;;;;;;8.73;5.05;;;8.90;1.00;;;;;;5045118;28;20037;-61
2023/05/19 01:05:22;;;;;;;9.45;4.30;;;8.90;1.00;;;;;;5045328;28;20144;-61
2023/05/19 01:07:52;;;;;;;10.32;5.15;;;8.90;1.00;;;;;;5043957;28;20063;-61
2023/05/19 01:10:19;;;;;;;9.65;4.97;;;8.70;1.00;;;;;;5048174;28;20064;-61
2023/05/19 01:12:45;;;;;;;8.75;4.85;;;8.80;1.00;;;;;;5050089;28;20043;-61
2023/05/19 01:15:11;;;;;;;9.30;4.65;;;8.70;1.00;;;;;;5050074;28;20480;-61
2023/05/19 01:18:06;;;;;;;8.77;4.43;;;8.60;1.00;;;;;;5053168;28;20040;-61
2023/05/19 01:20:51;;;;;;;7.32;4.70;;;8.60;1.00;;;;;;5046758;28;20083;-61
2023/05/19 01:24:08;;;;;;;11.00;4.65;;;8.70;1.00;;;;;;5043118;28;20052;-61
2023/05/19 01:27:03;;;;;;;11.50;5.20;;;8.60;1.00;;;;;;5029133;28;20045;-61
2023/05/19 01:29:49;;;;;;;13.52;5.30;;;8.50;1.00;;;;;;5050199;28;20036;-61
2023/05/19 01:32:18;;;;;;;9.82;5.28;;;8.50;1.00;;;;;;5045226;28;20219;-61
2023/05/19 01:34:47;;;;;;;12.43;5.07;;;8.50;1.00;;;;;;5045194;28;20040;-61
2023/05/19 01:37:14;;;;;;;8.68;5.28;;;8.50;1.00;;;;;;5043652;28;20032;-61
2023/05/19 01:39:41;;;;;;;11.65;5.55;;;8.50;1.00;;;;;;5049117;28;20061;-61
2023/05/19 01:42:07;;;;;;;7.68;4.70;;;8.50;1.00;;;;;;5045172;28;20041;-61
2023/05/19 01:44:33;;;;;;;10.82;5.05;;;;;;;;;;5049221;28;20044;-61
2023/05/19 01:47:00;;;;;;;11.40;5.70;;;8.40;1.00;;;;;;5047048;28;20060;-61
2023/05/19 01:49:25;;;;;;;9.70;5.45;;;8.50;1.00;;;;;;5051358;28;20048;-61
2023/05/19 01:51:51;;;;;;;11.27;5.43;;;8.40;1.00;;;;;;5049170;28;20067;-61
2023/05/19 01:54:17;;;;;;;8.73;5.38;;;8.40;1.00;;;;;;5048471;28;20044;-61
2023/05/19 01:57:06;;;;;;;10.77;5.22;;;8.40;1.00;;;;;;5044822;28;20064;-61
2023/05/19 01:59:53;;;;;;;10.68;5.57;;;8.30;1.00;;;;;;5049167;28;20151;-61
2023/05/19 02:02:34;;;;;;;9.50;5.30;;;8.30;1.00;;;;;;5047346;28;20072;-61
2023/05/19 02:05:27;;;;;;;11.07;5.45;;;8.20;1.00;;;;;;5045986;28;20843;-61
2023/05/19 02:08:01;;;;;;;9.20;5.32;;;8.20;1.00;;;;;;5047581;28;20021;-61
2023/05/19 02:10:31;;;;;;;13.90;5.68;;;8.20;1.00;;;;;;5048371;28;20037;-61
2023/05/19 02:13:03;;;;;;;9.43;5.53;;;8.30;1.00;;;;;;5050467;28;20047;-61
2023/05/19 02:15:37;;;;;;;11.85;5.40;;;8.20;1.00;;;;;;5052613;28;20036;-61
2023/05/19 02:18:04;;;;;;;13.88;5.63;;;8.30;1.00;;;;;;5050314;28;20036;-61
2023/05/19 02:20:30;;;;;;;11.48;5.68;;;8.30;1.00;;;;;;5051340;28;20033;-61
2023/05/19 02:22:55;;;;;;;15.02;6.15;;;8.20;1.00;;;;;;5048822;28;20033;-61
2023/05/19 02:25:23;;;;;;;10.18;5.53;;;8.10;1.00;;;;;;5051664;28;20120;-61
2023/05/19 02:27:49;;;;;;;13.30;5.80;;;8.10;1.00;;;;;;5047338;28;20040;-61
2023/05/19 02:30:14;;;;;;;10.75;5.18;;;8.00;1.00;;;;;;5047973;28;20420;-60
2023/05/19 02:32:40;;;;;;;9.73;5.05;;;8.00;1.00;;;;;;5047783;28;20041;-61
2023/05/19 02:35:06;;;;;;;8.55;5.03;;;8.00;1.00;;;;;;5048214;28;20132;-61
2023/05/19 02:37:31;;;;;;;12.48;5.68;;;8.00;1.00;;;;;;5045375;28;20029;-60
2023/05/19 02:39:57;;;;;;;10.45;5.32;;;8.00;1.00;;;;;;5045939;28;20029;-60
2023/05/19 02:42:23;;;;;;;9.57;5.53;;;8.00;1.00;;;;;;5053918;28;20094;-61
2023/05/19 02:44:48;;;;;;;10.40;5.45;;;8.00;1.00;;;;;;5048321;28;20048;-61
2023/05/19 02:47:14;;;;;;;9.95;5.68;;;8.00;1.00;;;;;;5050906;28;20036;-61
2023/05/19 02:49:41;;;;;;;9.95;5.00;;;7.90;1.00;;;;;;5055853;28;20048;-61
2023/05/19 02:52:07;;;;;;;10.27;5.60;;;7.90;1.00;;;;;;5053676;28;20578;-59
2023/05/19 02:54:33;;;;;;;12.32;5.25;;;7.80;1.00;;;;;;5054155;28;20052;-61
2023/05/19 02:56:59;;;;;;;9.70;5.13;;;7.80;1.00;;;;;;5043467;28;20033;-61
2023/05/19 02:59:25;;;;;;;8.73;5.50;;;7.80;1.00;;;;;;5048546;28;20036;-61
2023/05/19 03:01:54;;;;;;;9.65;5.95;;;7.60;58.10;;;;;;5045581;28;20037;-61
2023/05/19 03:04:20;;;;;;;10.38;4.93;;;7.80;6.00;;;;;;5044923;28;20037;-60
2023/05/19 03:06:45;;;;;;;10.35;5.75;;;7.70;2.60;;;;;;5050691;28;20025;-61
2023/05/19 03:09:12;;;;;;;10.18;5.20;;;7.70;1.00;;;;;;5045662;28;20082;-61
2023/05/19 03:11:38;;;;;;;12.27;5.57;;;7.70;40.10;;;;;;5047903;28;20119;-61
2023/05/19 03:14:04;;;;;;;11.07;5.35;;;7.70;60.60;;;;;;5050889;28;20043;-60
2023/05/19 03:16:30;;;;;;;11.90;6.20;;;7.70;23.60;;;;;;5048134;28;20045;-61
2023/05/19 03:18:55;;;;;;;10.88;5.40;;;7.70;40.60;;;;;;5050783;28;20050;-61
2023/05/19 03:21:21;;;;;;;11.45;5.65;;;7.60;22.60;;;;;;5042916;28;20111;-61
2023/05/19 03:23:47;;;;;;;10.38;5.30;;;7.70;1.00;;;;;;5052083;28;20051;-61
2023/05/19 03:26:12;;;;;;;10.25;5.82;;;7.70;2.00;;;;;;5051866;28;20042;-61
2023/05/19 03:28:38;;;;;;;12.23;5.90;;;7.60;49.90;;;;;;5053981;28;20036;-61
2023/05/19 03:31:03;;;;;;;11.90;5.70;;;7.70;11.80;;;;;;5051015;28;20044;-60
2023/05/19 03:33:29;;;;;;;11.57;5.95;;;7.60;31.10;;;;;;5051161;28;20072;-61
2023/05/19 03:35:57;;;;;;;10.27;5.38;;;7.60;41.00;;;;;;5045468;28;20025;-61
2023/05/19 03:38:23;;;;;;;8.60;5.50;;;7.60;99.90;;;;;;5046016;28;20037;-61
2023/05/19 03:40:49;;;;;;;12.10;5.80;;;7.60;99.90;;;;;;5048312;28;20082;-61
2023/05/19 03:43:17;;;;;;;12.90;6.43;;;7.60;62.00;;;;;;5049856;28;20060;-60
2023/05/19 03:45:43;;;;;;;15.48;6.32;;;7.60;78.80;;;;;;5046690;28;20039;-61
2023/05/19 03:48:08;;;;;;;9.27;6.25;;;7.70;82.90;;;;;;5045641;28;20032;-60
2023/05/19 03:50:36;;;;;;;11.23;5.60;;;7.50;98.50;;;;;;5053446;28;20044;-61
2023/05/19 03:53:02;;;;;;;10.88;5.90;;;7.60;76.00;;;;;;5050811;28;20032;-60
2023/05/19 03:55:31;;;;;;;12.15;6.05;;;7.60;76.60;;;;;;5051190;28;20048;-61
2023/05/19 03:57:56;;;;;;;11.60;5.90;;;7.70;20.30;;;;;;5051293;28;20127;-60
2023/05/19 04:00:22;;;;;;;12.98;5.63;;;7.70;51.70;;;;;;5051825;28;20127;-61
2023/05/19 04:02:48;;;;;;;13.73;6.40;;;7.70;28.40;;;;;;5050085;28;20060;-61
2023/05/19 04:05:14;;;;;;;11.85;6.32;;;7.80;37.00;;;;;;5044710;28;20131;-61
2023/05/19 04:07:40;;;;;;;8.93;6.25;;;7.70;66.40;;;;;;5048722;28;20182;-61
2023/05/19 04:10:06;;;;;;;10.55;5.72;;;7.80;59.70;;;;;;5050427;28;20029;-61
2023/05/19 04:12:32;;;;;;;10.95;6.32;;;7.80;76.40;;;;;;5049934;28;20559;-61
2023/05/19 04:14:58;;;;;;;17.13;7.38;;;7.90;56.20;;;;;;5044838;28;20033;-61
2023/05/19 04:17:25;;;;;;;11.93;6.38;;;7.90;71.40;;;;;;5044577;28;20052;-61
2023/05/19 04:19:52;;;;;;;13.05;6.47;;;7.90;71.70;;;;;;5050987;28;20025;-61
2023/05/19 04:22:17;;;;;;;11.93;6.25;;;8.00;83.50;;;;;;5045449;28;20115;-61
2023/05/19 04:24:43;;;;;;;12.25;7.00;;;8.10;68.20;;;;;;5051981;28;20028;-61
2023/05/19 04:27:10;;;;;;;12.05;7.07;;;8.10;90.60;;;;;;5044265;28;20487;-60
2023/05/19 04:29:39;;;;;;;11.98;6.60;;;8.10;44.40;;;;;;5048930;28;20143;-61
2023/05/19 04:32:05;;;;;;;12.73;6.70;;;8.20;25.40;;;;;;5047072;28;20029;-61
2023/05/19 04:34:32;;;;;;;11.93;6.50;;;8.40;2.40;;;;;;5051808;28;20454;-61
2023/05/19 04:36:58;;;;;;;12.75;7.10;;;8.70;1.00;;;;;;5048495;28;20036;-61
2023/05/19 04:39:23;;;;;;;13.55;7.13;;;8.60;1.00;;;;;;5042946;28;20041;-61
2023/05/19 04:41:49;;;;;;;15.82;7.22;;;8.60;1.00;;;;;;5048622;28;20040;-61
2023/05/19 04:44:16;;;;;;;15.30;7.78;;;8.70;1.00;;;;;;5053110;28;20636;-61
2023/05/19 04:46:43;;;;;;;16.98;7.47;;;9.00;1.00;;;;;;5050208;28;20204;-61
2023/05/19 04:49:11;;;;;;;14.55;7.78;;;9.10;1.00;;;;;;5044786;28;20033;-61
2023/05/19 04:51:40;;;;;;;12.25;7.55;;;9.10;1.00;;;;;;5044037;28;20024;-61
2023/05/19 04:54:09;;;;;;;15.55;7.78;;;9.30;1.00;;;;;;5045168;28;20086;-61
2023/05/19 04:56:35;;;;;;;21.00;8.00;;;9.10;1.00;;;;;;5050875;28;20045;-61
2023/05/19 04:59:01;;;;;;;16.25;7.80;;;9.30;1.00;;;;;;5037243;28;20437;-61
2023/05/19 05:01:26;;;;;;;14.02;8.18;;;9.50;1.00;;;;;;5050403;28;20033;-61
2023/05/19 05:03:57;;;;;;;13.85;8.05;;;9.40;1.00;;;;;;5051428;28;20040;-61
2023/05/19 05:06:23;;;;;;;16.23;7.45;;;9.30;1.00;;;;;;5057119;28;20041;-60
2023/05/19 05:08:49;;;;;;;17.25;7.90;;;9.40;1.00;;;;;;5054273;28;20044;-61
2023/05/19 05:11:16;;;;;;;15.13;7.38;;;9.50;1.00;;;;;;5051958;28;20059;-61
2023/05/19 05:13:41;;;;;;;16.75;7.85;;;9.60;1.00;;;;;;5052307;28;20119;-61
2023/05/19 05:16:08;;;;;;;15.90;7.25;;;9.80;1.00;;;;;;5042590;28;20464;-61
2023/05/19 05:18:35;;;;;;;17.50;7.90;;;9.80;1.00;;;;;;5051509;28;20104;-61
2023/05/19 05:21:02;;;;;;;15.07;7.38;;;9.90;1.00;;;;;;5052892;28;20372;-61
2023/05/19 05:23:28;;;;;;;15.07;7.05;;;10.00;1.00;;;;;;5055775;28;20492;-61
2023/05/19 05:25:53;;;;;;;15.77;7.10;;;10.20;1.00;;;;;;5055772;28;20059;-61
2023/05/19 05:28:19;;;;;;;16.67;7.30;;;10.30;1.00;;;;;;5057816;28;20123;-62
2023/05/19 05:30:45;;;;;;;15.70;6.65;;;10.30;1.00;;;;;;5053310;28;20064;-62
2023/05/19 05:33:10;;;;;;;12.80;6.68;;;10.30;1.00;;;;;;5052781;28;20488;-62
2023/05/19 05:35:36;;;;;;;15.00;7.35;;;10.40;1.00;;;;;;5054709;28;20090;-62
2023/05/19 05:38:02;;;;;;;15.00;7.45;;;10.40;1.00;;;;;;5054809;28;20064;-60
2023/05/19 05:40:28;;;;;;;21.60;7.43;;;10.40;1.00;;;;;;5058730;28;20071;-62
2023/05/19 05:42:57;;;;;;;20.83;7.63;;;10.60;1.00;;;;;;5055944;28;20120;-62
2023/05/19 05:45:23;;;;;;;19.02;7.28;;;10.70;1.00;;;;;;5056868;28;20032;-62
2023/05/19 05:47:50;;;;;;;13.48;7.00;;;10.90;99.90;;;;;;5061771;28;20036;-62
2023/05/19 05:50:16;;;;;;;16.55;7.03;;;10.80;1.00;;;;;;5053201;28;20213;-62
2023/05/19 05:52:45;;;;;;;17.80;7.35;;;11.00;1.00;;;;;;5056610;28;20491;-62
2023/05/19 05:55:12;;;;;;;15.65;6.80;;;11.00;99.90;;;;;;5044582;28;20068;-62
2023/05/19 05:57:40;;;;;;;17.23;7.15;;;11.00;99.90;;;;;;5055022;28;20090;-62
2023/05/19 06:00:14;;;;;;;16.27;7.07;;;11.40;99.90;;;;;;5052003;28;20075;-62
2023/05/19 06:02:42;;;;;;;17.48;6.55;;;11.40;99.90;;;;;;5047965;28;20398;-62
2023/05/19 06:05:11;;;;;;;18.98;7.18;;;11.30;99.90;;;;;;5052390;28;20036;-61
2023/05/19 06:07:39;;;;;;;15.00;6.63;;;11.40;99.90;;;;;;5043561;28;20037;-62
2023/05/19 06:10:06;;;;;;;15.07;6.85;;;11.40;99.90;;;;;;5042014;28;20032;-62
2023/05/19 06:12:32;;;;;;;15.15;6.47;;;11.40;99.90;;;;;;5055956;28;20037;-62
2023/05/19 06:14:58;;;;;;;17.77;6.70;;;11.50;99.90;;;;;;5057765;28;20032;-62
2023/05/19 06:17:23;;;;;;;23.00;6.90;;;11.60;99.90;;;;;;5047606;28;20553;-62
2023/05/19 06:19:49;;;;;;;18.15;6.15;;;11.80;99.90;;;;;;5042272;28;20046;-62
2023/05/19 06:22:14;;;;;;;17.25;6.22;;;11.90;45.10;;;;;;5057523;28;21212;-62
2023/05/19 06:24:40;;;;;;;13.20;6.35;;;12.00;51.30;;;;;;5052259;28;20778;-62
2023/05/19 06:27:06;;;;;;;15.15;6.20;;;12.30;1.00;;;;;;5044603;28;20045;-62
2023/05/19 06:29:31;;;;;;;14.55;6.05;;;12.40;1.00;;;;;;5051986;28;20075;-62
2023/05/19 06:31:57;;;;;;;11.35;4.85;;;12.50;1.00;;;;;;5046668;28;20039;-62
2023/05/19 06:34:23;;;;;;;17.15;5.20;;;12.30;1.00;;;;;;5047118;28;20033;-62
2023/05/19 06:36:49;;;;;;;11.68;4.40;;;12.30;1.00;;;;;;5050768;28;20129;-62
2023/05/19 06:39:14;;;;;;;14.07;5.03;;;12.40;99.90;;;;;;5048258;28;20404;-62
2023/05/19 06:41:40;;;;;;;14.35;5.32;;;12.60;99.90;;;;;;5051657;28;20419;-63
2023/05/19 06:44:09;;;;;;;18.40;5.63;;;12.50;99.90;;;;;;5045465;28;20032;-62
2023/05/19 06:46:34;;;;;;;15.27;5.95;;;12.80;99.90;;;;;;5032618;28;20476;-63
2023/05/19 06:49:00;;;;;;;17.35;8.13;;;13.00;1.00;;;;;;5049189;28;20033;-63
2023/05/19 06:51:26;;;;;;;20.15;7.63;;;13.10;99.90;;;;;;5045245;28;20029;-62
2023/05/19 06:53:51;;;;;;;20.45;8.07;;;13.20;1.00;;;;;;5050088;28;20040;-64
2023/05/19 06:56:17;;;;;;;19.58;7.70;;;13.30;14.70;;;;;;5047604;28;20101;-62
2023/05/19 06:58:44;;;;;;;19.05;6.40;;;13.30;1.00;;;;;;5053407;28;20048;-62
2023/05/19 07:01:09;;;;;;;19.52;6.22;;;13.20;1.00;;;;;;5053295;28;20144;-62
2023/05/19 07:03:35;;;;;;;20.95;5.68;;;13.20;99.90;;;;;;5055351;28;20140;-62
2023/05/19 07:06:00;;;;;;;13.30;5.65;;;13.30;99.90;;;;;;5050626;28;20043;-63
2023/05/19 07:08:26;;;;;;;13.38;4.55;;;13.40;99.90;;;;;;5053618;28;20033;-63
2023/05/19 07:10:53;;;;;;;8.95;3.78;;;13.50;59.50;;;;;;5055895;28;20086;-64
2023/05/19 07:13:18;;;;;;;14.43;4.53;;;13.60;99.90;;;;;;5054096;28;20462;-63
2023/05/19 07:15:44;;;;;;;16.33;4.63;;;13.70;1.00;;;;;;5051408;28;20379;-63
2023/05/19 07:18:09;;;;;;;10.10;3.72;;;13.80;99.90;;;;;;5047851;28;20040;-62
2023/05/19 07:20:35;;;;;;;8.15;3.60;;;14.00;99.90;;;;;;5055049;28;20113;-62
2023/05/19 07:23:01;;;;;;;9.73;3.75;;;14.00;99.90;;;;;;5053321;28;20420;-62
2023/05/19 07:25:29;;;;;;;11.15;3.85;;;14.20;1.00;;;;;;5052786;28;20426;-62
2023/05/19 07:27:55;;;;;;;17.65;8.07;;;14.10;1.00;;;;;;5061792;28;20044;-62
2023/05/19 07:30:21;;;;;;;11.70;4.35;;;14.10;99.90;;;;;;5051739;28;20049;-62
2023/05/19 07:32:46;;;;;;;13.98;3.70;;;14.10;99.90;;;;;;5053292;28;20047;-63
2023/05/19 07:35:12;;;;;;;12.35;4.05;;;14.20;99.90;;;;;;5057666;28;20090;-61
2023/05/19 07:37:37;;;;;;;10.00;3.72;;;14.30;92.50;;;;;;5052372;28;20508;-62
2023/05/19 07:40:05;;;;;;;9.23;3.30;;;14.50;1.00;;;;;;5057895;28;20044;-62
2023/05/19 07:42:31;;;;;;;10.93;3.58;;;14.50;1.00;;;;;;5060888;28;20112;-62
2023/05/19 07:44:56;;;;;;;12.07;3.83;;;14.60;1.00;;;;;;5049773;28;20108;-62
2023/05/19 07:47:22;;;;;;;10.35;3.53;;;14.70;99.90;;;;;;5049837;28;20138;-63
2023/05/19 07:49:47;;;;;;;9.05;3.15;;;14.90;99.90;;;;;;5057735;28;20049;-62
2023/05/19 07:52:13;;;;;;;7.82;3.00;;;15.00;99.90;;;;;;5051293;28;20453;-61
2023/05/19 07:54:38;;;;;;;15.43;3.55;;;14.90;1.00;;;;;;5052709;28;20036;-62
2023/05/19 07:57:04;;;;;;;13.23;3.63;;;15.00;1.00;;;;;;5055530;28;20066;-61
2023/05/19 07:59:30;;;;;;;10.95;4.10;;;15.10;79.30;;;;;;5050068;28;20135;-62
2023/05/19 08:01:56;;;;;;;10.80;3.80;;;15.10;99.90;;;;;;5055875;28;20060;-62
2023/05/19 08:04:21;;;;;;;9.43;3.22;;;15.10;99.90;;;;;;5053678;28;20056;-62
2023/05/19 08:06:47;;;;;;;11.30;3.85;;;15.30;38.60;;;;;;5055695;28;20056;-62
2023/05/19 08:09:13;;;;;;;7.63;3.88;;;15.20;99.90;;;;;;5052871;28;20028;-62
2023/05/19 08:11:38;;;;;;;9.90;3.75;;;15.30;99.90;;;;;;5054438;28;20040;-62
2023/05/19 08:14:04;;;;;;;11.45;3.72;;;15.50;99.90;;;;;;5033116;28;20044;-62
2023/05/19 08:16:30;;;;;;;12.07;3.22;;;15.70;1.00;;;;;;5044417;28;20032;-62
2023/05/19 08:18:55;;;;;;;11.65;3.50;;;15.80;1.00;;;;;;5047251;28;20124;-62
2023/05/19 08:21:21;;;;;;;10.23;3.33;;;15.90;1.00;;;;;;5049942;28;20040;-62
2023/05/19 08:23:46;;;;;;;15.90;3.42;;;16.00;96.80;;;;;;5045843;28;20075;-62
2023/05/19 08:26:12;;;;;;;11.82;3.33;;;15.90;99.90;;;;;;5048497;28;20041;-62
2023/05/19 08:28:38;;;;;;;11.13;2.28;;;16.20;1.00;;;;;;5048880;28;20111;-63
2023/05/19 08:31:03;;;;;;;8.75;2.63;;;16.20;1.00;;;;;;5050637;28;20037;-62
2023/05/19 08:33:29;;;;;;;6.85;2.25;;;16.30;99.90;;;;;;5051625;28;20052;-62
2023/05/19 08:35:56;;;;;;;9.80;2.42;;;16.00;1.00;;;;;;5050085;28;20048;-62
2023/05/19 08:38:23;;;;;;;6.97;2.40;;;16.20;99.90;;;;;;5045013;28;20040;-62
2023/05/19 08:40:48;;;;;;;5.22;2.30;;;16.40;1.00;;;;;;5050177;28;20061;-62
2023/05/19 08:43:14;;;;;;;11.25;2.60;;;16.40;99.90;;;;;;5050645;28;20056;-62
2023/05/19 08:45:43;;;;;;;7.63;2.45;;;16.40;99.90;;;;;;5045330;28;20491;-62
2023/05/19 08:48:09;;;;;;;7.90;2.22;;;16.60;99.90;;;;;;5051614;28;20495;-62
2023/05/19 08:50:40;;;;;;;7.05;2.15;;;16.40;99.90;;;;;;5055535;28;20047;-62
2023/05/19 08:53:21;;;;;;;9.35;2.15;;;16.40;99.90;;;;;;5046106;28;20123;-62
2023/05/19 08:56:09;;;;;;;6.15;1.58;;;16.60;99.90;;;;;;5053279;28;20029;-62
2023/05/19 08:58:40;;;;;;;7.20;2.25;;;16.60;1.00;;;;;;5049597;28;20044;-62
2023/05/19 09:01:06;;;;;;;8.15;2.00;;;16.50;1.00;;;;;;5053166;28;20029;-62
2023/05/19 09:03:37;;;;;;;8.80;2.20;;;16.40;1.00;;;;;;5053142;28;20507;-63
2023/05/19 09:06:11;;;;;;;5.53;1.70;;;16.60;1.00;;;;;;5053046;28;20502;-62
2023/05/19 09:08:37;;;;;;;11.63;2.42;;;16.60;1.00;;;;;;5048522;28;20039;-62
2023/05/19 09:11:02;;;;;;;5.68;1.85;;;16.60;1.00;;;;;;5050088;28;20422;-62
2023/05/19 09:13:28;;;;;;;5.75;1.95;;;16.60;1.00;;;;;;5045859;28;20040;-63
2023/05/19 09:15:56;;;;;;;8.18;2.10;;;16.70;1.00;;;;;;5050734;28;20579;-63
2023/05/19 09:18:23;;;;;;;5.22;1.73;;;16.90;99.90;;;;;;5054009;28;20044;-63
2023/05/19 09:20:49;;;;;;;8.73;1.90;;;16.70;99.90;;;;;;5053475;28;20511;-63
2023/05/19 09:23:17;;;;;;;7.03;2.35;;;16.70;99.90;;;;;;5056646;28;20071;-63
2023/05/19 09:26:03;;;;;;;4.90;1.60;;;16.60;99.90;;;;;;5047115;28;20033;-63
2023/05/19 09:28:31;;;;;;;6.43;1.92;;;16.80;99.90;;;;;;5056577;28;20037;-64
2023/05/19 09:31:08;;;;;;;6.70;2.10;;;17.00;99.90;;;;;;5057523;28;20474;-63
2023/05/19 09:33:41;;;;;;;6.18;1.98;;;17.00;99.90;;;;;;5053623;28;20104;-63
2023/05/19 09:36:10;;;;;;;9.65;2.10;;;16.90;99.90;;;;;;5042459;28;20037;-63
2023/05/19 09:38:37;;;;;;;8.18;1.95;;;17.30;1.00;;;;;;5051911;28;20036;-64
2023/05/19 09:41:04;;;;;;;9.10;2.10;;;17.40;1.00;;;;;;5050498;28;20053;-62
2023/05/19 09:43:32;;;;;;;7.57;2.17;;;17.40;99.90;;;;;;5051502;28;20040;-63
2023/05/19 09:46:04;;;;;;;10.57;2.30;;;17.10;1.00;;;;;;5045564;28;20114;-63
2023/05/19 09:48:30;;;;;;;5.85;1.92;;;17.10;99.90;;;;;;5043768;28;20040;-63
2023/05/19 09:50:56;;;;;;;8.38;1.98;;;17.20;99.90;;;;;;5047677;28;20396;-63
2023/05/19 09:53:24;;;;;;;4.80;1.70;;;17.30;99.90;;;;;;5048501;28;20500;-64
2023/05/19 09:55:54;;;;;;;5.78;1.83;;;17.20;99.90;;;;;;5053367;28;20033;-63
2023/05/19 09:58:20;;;;;;;9.38;2.10;;;17.10;99.90;;;;;;5059743;28;20044;-66
2023/05/19 10:00:47;;;;;;;8.27;2.30;;;17.50;1.00;;;;;;5053110;28;20128;-66
2023/05/19 10:03:13;;;;;;;5.88;2.08;;;17.30;74.30;;;;;;5050280;28;20026;-66
2023/05/19 10:05:40;;;;;;;6.45;1.90;;;17.30;99.90;;;;;;5057252;28;20098;-66
2023/05/19 10:08:09;;;;;;;8.50;2.22;;;17.60;99.90;;;;;;5050910;28;20043;-65
2023/05/19 10:10:35;;;;;;;6.13;1.80;;;17.80;99.90;;;;;;5048106;28;20743;-66
2023/05/19 10:13:03;;;;;;;6.22;1.92;;;17.70;99.90;;;;;;5057742;28;20033;-66
2023/05/19 10:15:29;;;;;;;9.00;1.80;;;17.90;99.90;;;;;;5045689;28;20473;-66
2023/05/19 10:17:55;;;;;;;8.80;2.00;;;17.80;99.90;;;;;;5056698;28;20424;-66
2023/05/19 10:20:21;;;;;;;6.53;2.30;;;17.60;99.90;;;;;;5049145;28;20037;-66
2023/05/19 10:22:47;;;;;;;10.88;2.38;;;17.70;99.90;;;;;;5046487;28;20043;-66
2023/05/19 10:25:17;;;;;;;7.75;2.15;;;17.90;99.90;;;;;;5046409;28;20041;-65
2023/05/19 10:28:06;;;;;;;7.97;2.38;;;17.60;1.00;;;;;;5052099;28;20112;-65
2023/05/19 10:30:36;;;;;;;8.63;1.95;;;17.40;1.00;;;;;;5056697;28;20498;-66
2023/05/19 10:33:03;;;;;;;7.55;2.05;;;17.50;99.90;;;;;;5051651;28;20123;-66
2023/05/19 10:35:55;;;;;;;6.93;1.90;;;17.40;1.00;;;;;;5053240;28;20031;-66
2023/05/19 10:38:47;;;;;;;6.50;1.92;;;17.60;99.90;;;;;;5059048;28;20090;-68
2023/05/19 10:41:49;;;;;;;8.77;2.17;;;17.90;99.90;;;;;;5056671;28;20500;-67
2023/05/19 10:44:22;;;;;;;5.18;1.60;;;17.90;1.00;;;;;;5056159;28;20047;-67
2023/05/19 10:46:48;;;;;;;9.23;2.13;;;18.00;29.10;;;;;;5052282;28;20047;-65
2023/05/19 10:49:21;;;;;;;7.18;2.28;;;18.20;99.90;;;;;;5051640;28;20033;-64
2023/05/19 10:51:47;;;;;;;6.85;2.03;;;18.10;99.90;;;;;;5043819;28;20037;-66
2023/05/19 10:54:15;;;;;;;7.50;2.35;;;18.00;75.00;;;;;;5047441;28;20045;-65
2023/05/19 10:56:45;;;;;;;11.32;2.42;;;18.30;6.00;;;;;;5056282;28;20036;-65
2023/05/19 10:59:34;;;;;;;5.40;1.80;;;18.40;1.00;;;;;;5054712;28;20094;-64
2023/05/19 11:02:03;;;;;;;5.38;2.20;;;18.40;1.00;;;;;;5051326;28;20405;-65
2023/05/19 11:04:46;;;;;;;10.27;2.25;;;18.20;1.00;;;;;;5051805;28;20040;-65
2023/05/19 11:07:20;;;;;;;10.25;2.30;;;18.10;1.00;;;;;;5051674;28;20443;-65
2023/05/19 11:09:52;;;;;;;6.65;1.60;;;18.20;1.00;;;;;;5046390;28;20082;-65
2023/05/19 11:12:22;;;;;;;6.75;1.98;;;18.30;1.00;;;;;;5052027;28;20053;-64
2023/05/19 11:14:51;;;;;;;6.22;2.00;;;18.10;1.00;;;;;;5050665;28;20029;-65
2023/05/19 11:17:20;;;;;;;8.60;2.13;;;18.20;1.00;;;;;;5049769;28;20555;-65
2023/05/19 11:19:56;;;;;;;6.53;2.08;;;17.80;1.00;;;;;;5046807;28;20033;-65
2023/05/19 11:22:24;;;;;;;8.90;2.47;;;17.90;1.00;;;;;;5049746;28;20124;-65
2023/05/19 11:24:52;;;;;;;6.88;2.08;;;18.00;1.00;;;;;;5053775;28;20037;-65
2023/05/19 11:27:24;;;;;;;5.35;2.08;;;18.10;1.00;;;;;;5051882;28;20314;-66
2023/05/19 11:29:50;;;;;;;7.55;1.88;;;18.20;1.00;;;;;;5054496;28;20048;-66
2023/05/19 11:32:16;;;;;;;6.68;2.10;;;18.30;1.00;;;;;;5050404;28;20118;-64
2023/05/19 11:34:43;;;;;;;10.48;2.28;;;18.30;1.00;;;;;;5050999;28;20029;-66
2023/05/19 11:37:10;;;;;;;7.28;2.03;;;18.30;1.00;;;;;;5054825;28;20046;-65
2023/05/19 11:39:36;;;;;;;7.15;2.38;;;18.10;1.00;;;;;;5057068;28;20071;-67
2023/05/19 11:42:01;;;;;;;5.72;1.77;;;18.10;1.00;;;;;;5048360;28;20113;-62
2023/05/19 11:44:27;;;;;;;7.50;2.47;;;18.10;1.00;;;;;;5046673;28;20040;-64
2023/05/19 11:46:52;;;;;;;7.65;2.20;;;18.30;1.00;;;;;;5046823;28;20078;-67
2023/05/19 11:49:18;;;;;;;7.65;2.10;;;18.50;1.00;;;;;;5046824;28;20047;-65
2023/05/19 11:51:44;;;;;;;6.53;2.33;;;18.50;1.00;;;;;;5051995;28;20399;-67
2023/05/19 11:54:11;;;;;;;4.90;2.08;;;18.20;1.00;;;;;;5047375;28;20040;-67
2023/05/19 11:56:41;;;;;;;5.18;2.03;;;18.10;1.00;;;;;;5056573;28;20036;-67
2023/05/19 11:59:07;;;;;;;8.43;2.40;;;18.00;1.00;;;;;;5052299;28;20109;-66
2023/05/19 12:01:34;;;;;;;7.35;2.30;;;18.10;1.00;;;;;;5058333;28;20038;-67
2023/05/19 12:04:00;;;;;;;8.70;2.38;;;18.10;1.00;;;;;;5054242;28;20125;-66
2023/05/19 12:06:26;;;;;;;7.35;2.13;;;17.90;1.00;;;;;;5057582;28;20036;-67
2023/05/19 12:08:53;;;;;;;7.10;2.17;;;18.10;1.00;;;;;;5049187;28;20196;-66
2023/05/19 12:11:19;;;;;;;7.22;2.28;;;18.40;1.00;;;;;;5054242;28;20051;-67
2023/05/19 12:13:46;;;;;;;9.13;2.08;;;18.40;1.00;;;;;;5047390;28;20041;-64
2023/05/19 12:16:12;;;;;;;6.18;1.85;;;18.30;1.00;;;;;;5055012;28;20029;-66
2023/05/19 12:18:39;;;;;;;6.10;1.80;;;18.20;1.00;;;;;;5043071;28;20044;-67
2023/05/19 12:21:05;;;;;;;8.20;1.92;;;18.40;1.00;;;;;;5053346;28;20041;-64
2023/05/19 12:23:32;;;;;;;6.45;1.90;;;18.60;1.00;;;;;;5048208;28;20421;-65
2023/05/19 12:25:58;;;;;;;4.90;1.73;;;18.20;1.00;;;;;;5050348;28;20400;-66
2023/05/19 12:28:24;;;;;;;8.52;2.10;;;18.30;1.00;;;;;;5052441;28;20147;-64
2023/05/19 12:30:51;;;;;;;6.07;2.22;;;18.40;1.00;;;;;;5053935;28;20529;-65
2023/05/19 12:33:21;;;;;;;8.90;2.58;;;18.30;1.00;;;;;;5054559;28;20200;-64
2023/05/19 12:35:48;;;;;;;5.05;2.28;;;18.10;1.00;;;;;;5053211;28;20123;-64
2023/05/19 12:38:15;;;;;;;9.43;2.67;;;18.00;1.00;;;;;;5048825;28;20033;-64
2023/05/19 12:40:42;;;;;;;9.70;2.47;;;18.30;1.00;;;;;;5051997;28;20032;-65
2023/05/19 12:43:17;;;;;;;9.52;2.42;;;18.40;1.00;;;;;;5051236;28;20174;-64
2023/05/19 12:45:42;;;;;;;9.88;2.35;;;18.40;1.00;;;;;;5049432;28;20067;-64
2023/05/19 12:48:11;;;;;;;6.60;2.65;;;18.40;1.00;;;;;;5049391;28;20248;-64
2023/05/19 12:50:37;;;;;;;6.90;2.25;;;18.50;1.00;;;;;;5050767;28;20032;-64
2023/05/19 12:53:07;;;;;;;9.77;2.50;;;18.50;1.00;;;;;;5045963;28;20040;-64
2023/05/19 12:55:44;;;;;;;5.97;2.40;;;18.70;1.00;;;;;;5053266;28;20036;-64
2023/05/19 12:58:10;;;;;;;6.00;2.00;;;18.80;1.00;;;;;;5049545;28;20041;-64